sensor_id;sensor_type;location;lat;lon;timestamp;temperature;humidity
44767;DHT22;30487;48.716;9.272;2023-06-14T00:01:34;19.70;57.00
44767;DHT22;30487;48.716;9.272;2023-06-14T00:04:01;19.50;57.80
44767;DHT22;30487;48.716;9.272;2023-06-14T00:06:28;19.50;57.80
44767;DHT22;30487;48.716;9.272;2023-06-14T00:08:54;19.60;57.80
44767;DHT22;30487;48.716;9.272;2023-06-14T00:11:19;19.60;57.60
44767;DHT22;30487;48.716;9.272;2023-06-14T00:13:46;19.50;58.20
44767;DHT22;30487;48.716;9.272;2023-06-14T00:16:11;19.40;57.80
44767;DHT22;30487;48.716;9.272;2023-06-14T00:18:37;19.40;57.40
44767;DHT22;30487;48.716;9.272;2023-06-14T00:21:03;19.40;57.80
44767;DHT22;30487;48.716;9.272;2023-06-14T00:23:29;19.30;58.00
44767;DHT22;30487;48.716;9.272;2023-06-14T00:25:55;19.30;57.90
44767;DHT22;30487;48.716;9.272;2023-06-14T00:28:20;19.30;58.10
44767;DHT22;30487;48.716;9.272;2023-06-14T00:30:46;19.20;58.00
44767;DHT22;30487;48.716;9.272;2023-06-14T00:33:12;18.90;58.60
44767;DHT22;30487;48.716;9.272;2023-06-14T00:35:38;18.50;59.50
44767;DHT22;30487;48.716;9.272;2023-06-14T00:38:03;18.20;60.30
44767;DHT22;30487;48.716;9.272;2023-06-14T00:40:29;18.00;61.10
44767;DHT22;30487;48.716;9.272;2023-06-14T00:42:54;17.80;60.80
44767;DHT22;30487;48.716;9.272;2023-06-14T00:45:20;17.70;61.00
44767;DHT22;30487;48.716;9.272;2023-06-14T00:47:46;17.60;61.10
44767;DHT22;30487;48.716;9.272;2023-06-14T00:50:12;17.60;61.10
44767;DHT22;30487;48.716;9.272;2023-06-14T00:52:39;17.60;61.30
44767;DHT22;30487;48.716;9.272;2023-06-14T00:55:05;17.70;61.40
44767;DHT22;30487;48.716;9.272;2023-06-14T00:57:31;17.80;61.10
44767;DHT22;30487;48.716;9.272;2023-06-14T00:59:57;17.90;60.80
44767;DHT22;30487;48.716;9.272;2023-06-14T01:02:23;18.00;60.50
44767;DHT22;30487;48.716;9.272;2023-06-14T01:04:50;18.10;60.30
44767;DHT22;30487;48.716;9.272;2023-06-14T01:11:01;18.30;59.90
44767;DHT22;30487;48.716;9.272;2023-06-14T01:13:38;18.40;60.50
44767;DHT22;30487;48.716;9.272;2023-06-14T01:16:05;18.40;60.30
44767;DHT22;30487;48.716;9.272;2023-06-14T01:18:31;18.40;60.30
44767;DHT22;30487;48.716;9.272;2023-06-14T01:20:57;18.40;60.40
44767;DHT22;30487;48.716;9.272;2023-06-14T01:23:23;18.40;60.20
44767;DHT22;30487;48.716;9.272;2023-06-14T01:25:49;18.40;59.70
44767;DHT22;30487;48.716;9.272;2023-06-14T01:28:19;18.40;59.60
44767;DHT22;30487;48.716;9.272;2023-06-14T01:30:50;18.30;59.80
44767;DHT22;30487;48.716;9.272;2023-06-14T01:33:26;18.30;59.60
44767;DHT22;30487;48.716;9.272;2023-06-14T01:35:54;18.40;59.30
44767;DHT22;30487;48.716;9.272;2023-06-14T01:38:22;18.30;59.50
44767;DHT22;30487;48.716;9.272;2023-06-14T01:40:48;18.30;59.50
44767;DHT22;30487;48.716;9.272;2023-06-14T01:43:16;18.30;60.00
44767;DHT22;30487;48.716;9.272;2023-06-14T01:45:44;18.40;59.80
44767;DHT22;30487;48.716;9.272;2023-06-14T01:48:10;18.40;59.80
44767;DHT22;30487;48.716;9.272;2023-06-14T01:50:36;18.30;60.00
44767;DHT22;30487;48.716;9.272;2023-06-14T01:53:02;18.30;59.80
44767;DHT22;30487;48.716;9.272;2023-06-14T01:55:28;18.20;59.70
44767;DHT22;30487;48.716;9.272;2023-06-14T01:57:54;18.20;59.90
44767;DHT22;30487;48.716;9.272;2023-06-14T02:00:20;18.10;59.80
44767;DHT22;30487;48.716;9.272;2023-06-14T02:02:46;18.10;59.70
44767;DHT22;30487;48.716;9.272;2023-06-14T02:05:12;18.10;59.80
44767;DHT22;30487;48.716;9.272;2023-06-14T02:07:38;18.10;60.70
44767;DHT22;30487;48.716;9.272;2023-06-14T02:10:04;18.10;60.50
44767;DHT22;30487;48.716;9.272;2023-06-14T02:12:30;18.00;61.30
44767;DHT22;30487;48.716;9.272;2023-06-14T02:14:56;18.00;60.70
44767;DHT22;30487;48.716;9.272;2023-06-14T02:17:22;18.00;61.20
44767;DHT22;30487;48.716;9.272;2023-06-14T02:19:47;18.10;61.20
44767;DHT22;30487;48.716;9.272;2023-06-14T02:22:14;18.00;61.20
44767;DHT22;30487;48.716;9.272;2023-06-14T02:24:40;18.10;61.00
44767;DHT22;30487;48.716;9.272;2023-06-14T02:27:06;18.10;61.00
44767;DHT22;30487;48.716;9.272;2023-06-14T02:29:32;18.10;61.30
44767;DHT22;30487;48.716;9.272;2023-06-14T02:31:57;18.10;60.90
44767;DHT22;30487;48.716;9.272;2023-06-14T02:34:23;18.10;60.90
44767;DHT22;30487;48.716;9.272;2023-06-14T02:36:48;18.00;60.80
44767;DHT22;30487;48.716;9.272;2023-06-14T02:39:15;18.00;61.10
44767;DHT22;30487;48.716;9.272;2023-06-14T02:41:40;18.00;61.30
44767;DHT22;30487;48.716;9.272;2023-06-14T02:44:06;18.00;61.40
44767;DHT22;30487;48.716;9.272;2023-06-14T02:46:32;18.00;61.70
44767;DHT22;30487;48.716;9.272;2023-06-14T02:48:57;18.00;61.70
44767;DHT22;30487;48.716;9.272;2023-06-14T02:51:23;17.90;62.00
44767;DHT22;30487;48.716;9.272;2023-06-14T02:53:48;17.90;62.50
44767;DHT22;30487;48.716;9.272;2023-06-14T02:56:14;17.90;62.10
44767;DHT22;30487;48.716;9.272;2023-06-14T02:58:42;17.90;62.30
44767;DHT22;30487;48.716;9.272;2023-06-14T03:01:08;17.80;62.40
44767;DHT22;30487;48.716;9.272;2023-06-14T03:03:35;17.80;62.10
44767;DHT22;30487;48.716;9.272;2023-06-14T03:06:00;17.80;62.30
44767;DHT22;30487;48.716;9.272;2023-06-14T03:08:29;17.60;62.40
44767;DHT22;30487;48.716;9.272;2023-06-14T03:10:56;17.60;62.50
44767;DHT22;30487;48.716;9.272;2023-06-14T03:13:23;17.50;62.60
44767;DHT22;30487;48.716;9.272;2023-06-14T03:15:49;17.50;63.10
44767;DHT22;30487;48.716;9.272;2023-06-14T03:18:17;17.40;63.20
44767;DHT22;30487;48.716;9.272;2023-06-14T03:20:42;17.20;63.00
44767;DHT22;30487;48.716;9.272;2023-06-14T03:23:11;17.20;63.40
44767;DHT22;30487;48.716;9.272;2023-06-14T03:25:37;17.10;63.60
44767;DHT22;30487;48.716;9.272;2023-06-14T03:28:04;17.10;63.70
44767;DHT22;30487;48.716;9.272;2023-06-14T03:30:31;17.20;63.80
44767;DHT22;30487;48.716;9.272;2023-06-14T03:32:57;17.30;63.70
44767;DHT22;30487;48.716;9.272;2023-06-14T03:35:23;17.40;63.90
44767;DHT22;30487;48.716;9.272;2023-06-14T03:37:49;17.40;63.50
44767;DHT22;30487;48.716;9.272;2023-06-14T03:40:17;17.40;63.30
44767;DHT22;30487;48.716;9.272;2023-06-14T03:42:43;17.40;63.90
44767;DHT22;30487;48.716;9.272;2023-06-14T03:45:08;17.30;64.50
44767;DHT22;30487;48.716;9.272;2023-06-14T03:47:34;17.00;65.80
44767;DHT22;30487;48.716;9.272;2023-06-14T03:50:04;17.00;65.70
44767;DHT22;30487;48.716;9.272;2023-06-14T03:52:30;16.90;66.00
44767;DHT22;30487;48.716;9.272;2023-06-14T03:54:58;17.10;66.10
44767;DHT22;30487;48.716;9.272;2023-06-14T03:57:25;17.00;65.50
44767;DHT22;30487;48.716;9.272;2023-06-14T03:59:51;16.80;65.80
44767;DHT22;30487;48.716;9.272;2023-06-14T04:02:17;16.50;66.60
44767;DHT22;30487;48.716;9.272;2023-06-14T04:04:43;16.20;68.70
44767;DHT22;30487;48.716;9.272;2023-06-14T04:07:11;16.10;68.90
44767;DHT22;30487;48.716;9.272;2023-06-14T04:09:37;16.10;69.10
44767;DHT22;30487;48.716;9.272;2023-06-14T04:12:03;16.20;68.90
44767;DHT22;30487;48.716;9.272;2023-06-14T04:14:29;16.20;68.30
44767;DHT22;30487;48.716;9.272;2023-06-14T04:16:56;16.40;67.90
44767;DHT22;30487;48.716;9.272;2023-06-14T04:19:21;16.50;67.40
44767;DHT22;30487;48.716;9.272;2023-06-14T04:21:47;16.50;67.40
44767;DHT22;30487;48.716;9.272;2023-06-14T04:24:12;16.50;67.40
44767;DHT22;30487;48.716;9.272;2023-06-14T04:26:45;16.40;67.10
44767;DHT22;30487;48.716;9.272;2023-06-14T04:29:13;16.40;67.40
44767;DHT22;30487;48.716;9.272;2023-06-14T04:31:43;16.20;67.90
44767;DHT22;30487;48.716;9.272;2023-06-14T04:34:10;16.10;68.30
44767;DHT22;30487;48.716;9.272;2023-06-14T04:36:42;15.90;68.40
44767;DHT22;30487;48.716;9.272;2023-06-14T04:39:18;15.90;68.80
44767;DHT22;30487;48.716;9.272;2023-06-14T04:41:44;15.90;68.80
44767;DHT22;30487;48.716;9.272;2023-06-14T04:44:09;16.00;68.70
44767;DHT22;30487;48.716;9.272;2023-06-14T04:46:35;16.00;68.70
44767;DHT22;30487;48.716;9.272;2023-06-14T04:49:14;16.10;68.80
44767;DHT22;30487;48.716;9.272;2023-06-14T04:51:41;16.10;69.10
44767;DHT22;30487;48.716;9.272;2023-06-14T04:54:08;16.10;69.20
44767;DHT22;30487;48.716;9.272;2023-06-14T04:56:35;16.20;69.20
44767;DHT22;30487;48.716;9.272;2023-06-14T04:59:02;16.40;69.20
44767;DHT22;30487;48.716;9.272;2023-06-14T05:01:30;16.50;69.00
44767;DHT22;30487;48.716;9.272;2023-06-14T05:03:57;16.60;69.10
44767;DHT22;30487;48.716;9.272;2023-06-14T05:06:22;16.60;69.50
44767;DHT22;30487;48.716;9.272;2023-06-14T05:08:48;16.70;69.40
44767;DHT22;30487;48.716;9.272;2023-06-14T05:11:14;16.80;69.70
44767;DHT22;30487;48.716;9.272;2023-06-14T05:13:39;16.90;68.90
44767;DHT22;30487;48.716;9.272;2023-06-14T05:16:05;17.00;68.80
44767;DHT22;30487;48.716;9.272;2023-06-14T05:18:31;17.10;68.70
44767;DHT22;30487;48.716;9.272;2023-06-14T05:20:59;17.10;69.10
44767;DHT22;30487;48.716;9.272;2023-06-14T05:23:25;17.10;69.10
44767;DHT22;30487;48.716;9.272;2023-06-14T05:25:50;17.10;69.30
44767;DHT22;30487;48.716;9.272;2023-06-14T05:28:16;17.00;69.80
44767;DHT22;30487;48.716;9.272;2023-06-14T05:30:42;17.00;70.00
44767;DHT22;30487;48.716;9.272;2023-06-14T05:33:07;17.10;69.20
44767;DHT22;30487;48.716;9.272;2023-06-14T05:35:33;17.10;70.80
44767;DHT22;30487;48.716;9.272;2023-06-14T05:37:59;17.10;70.30
44767;DHT22;30487;48.716;9.272;2023-06-14T05:40:24;17.20;70.70
44767;DHT22;30487;48.716;9.272;2023-06-14T05:42:50;17.30;71.80
44767;DHT22;30487;48.716;9.272;2023-06-14T05:45:16;17.30;71.80
44767;DHT22;30487;48.716;9.272;2023-06-14T05:47:42;17.30;71.50
44767;DHT22;30487;48.716;9.272;2023-06-14T05:50:08;17.40;70.30
44767;DHT22;30487;48.716;9.272;2023-06-14T05:52:34;17.60;69.40
44767;DHT22;30487;48.716;9.272;2023-06-14T05:55:00;17.80;68.60
44767;DHT22;30487;48.716;9.272;2023-06-14T05:57:26;17.90;68.20
44767;DHT22;30487;48.716;9.272;2023-06-14T05:59:51;18.10;68.30
44767;DHT22;30487;48.716;9.272;2023-06-14T06:02:17;18.20;67.50
44767;DHT22;30487;48.716;9.272;2023-06-14T06:04:44;18.30;67.00
44767;DHT22;30487;48.716;9.272;2023-06-14T06:07:09;18.40;66.60
44767;DHT22;30487;48.716;9.272;2023-06-14T06:09:35;18.40;66.00
44767;DHT22;30487;48.716;9.272;2023-06-14T06:12:01;18.50;64.70
44767;DHT22;30487;48.716;9.272;2023-06-14T06:14:26;18.50;64.10
44767;DHT22;30487;48.716;9.272;2023-06-14T06:16:54;18.60;64.30
44767;DHT22;30487;48.716;9.272;2023-06-14T06:19:19;18.50;64.20
44767;DHT22;30487;48.716;9.272;2023-06-14T06:21:45;18.70;64.40
44767;DHT22;30487;48.716;9.272;2023-06-14T06:24:11;18.80;64.50
44767;DHT22;30487;48.716;9.272;2023-06-14T06:26:36;18.80;64.60
44767;DHT22;30487;48.716;9.272;2023-06-14T06:29:02;18.90;65.20
44767;DHT22;30487;48.716;9.272;2023-06-14T06:31:27;18.90;64.30
44767;DHT22;30487;48.716;9.272;2023-06-14T06:33:55;19.00;64.40
44767;DHT22;30487;48.716;9.272;2023-06-14T06:36:21;19.10;64.20
44767;DHT22;30487;48.716;9.272;2023-06-14T06:38:47;19.20;64.50
44767;DHT22;30487;48.716;9.272;2023-06-14T06:41:13;19.20;64.00
44767;DHT22;30487;48.716;9.272;2023-06-14T06:43:39;19.30;64.10
44767;DHT22;30487;48.716;9.272;2023-06-14T06:46:04;19.30;64.10
44767;DHT22;30487;48.716;9.272;2023-06-14T06:48:30;19.40;63.20
44767;DHT22;30487;48.716;9.272;2023-06-14T06:50:56;19.40;62.90
44767;DHT22;30487;48.716;9.272;2023-06-14T06:53:21;19.50;62.90
44767;DHT22;30487;48.716;9.272;2023-06-14T06:55:48;19.60;62.80
44767;DHT22;30487;48.716;9.272;2023-06-14T06:58:14;19.70;63.00
44767;DHT22;30487;48.716;9.272;2023-06-14T07:00:39;19.80;62.30
44767;DHT22;30487;48.716;9.272;2023-06-14T07:03:05;19.80;62.40
44767;DHT22;30487;48.716;9.272;2023-06-14T07:05:31;20.00;62.20
44767;DHT22;30487;48.716;9.272;2023-06-14T07:07:57;20.00;62.10
44767;DHT22;30487;48.716;9.272;2023-06-14T07:10:23;20.10;61.80
44767;DHT22;30487;48.716;9.272;2023-06-14T07:12:50;20.10;62.00
44767;DHT22;30487;48.716;9.272;2023-06-14T07:15:16;20.20;61.70
44767;DHT22;30487;48.716;9.272;2023-06-14T07:17:41;20.30;61.60
44767;DHT22;30487;48.716;9.272;2023-06-14T07:20:08;20.40;61.00
44767;DHT22;30487;48.716;9.272;2023-06-14T07:22:38;20.50;61.30
44767;DHT22;30487;48.716;9.272;2023-06-14T07:25:04;20.60;61.30
44767;DHT22;30487;48.716;9.272;2023-06-14T07:27:30;20.60;61.00
44767;DHT22;30487;48.716;9.272;2023-06-14T07:29:55;20.70;60.70
44767;DHT22;30487;48.716;9.272;2023-06-14T07:32:21;20.80;60.40
44767;DHT22;30487;48.716;9.272;2023-06-14T07:34:46;20.80;60.60
44767;DHT22;30487;48.716;9.272;2023-06-14T07:37:12;20.90;61.10
44767;DHT22;30487;48.716;9.272;2023-06-14T07:39:38;21.00;60.60
44767;DHT22;30487;48.716;9.272;2023-06-14T07:42:03;21.10;60.80
44767;DHT22;30487;48.716;9.272;2023-06-14T07:44:30;21.10;60.40
44767;DHT22;30487;48.716;9.272;2023-06-14T07:46:56;21.10;59.60
44767;DHT22;30487;48.716;9.272;2023-06-14T07:49:25;21.10;60.20
44767;DHT22;30487;48.716;9.272;2023-06-14T07:51:51;21.10;60.60
44767;DHT22;30487;48.716;9.272;2023-06-14T07:54:16;21.30;60.80
44767;DHT22;30487;48.716;9.272;2023-06-14T07:56:42;21.40;59.90
44767;DHT22;30487;48.716;9.272;2023-06-14T07:59:08;21.50;59.70
44767;DHT22;30487;48.716;9.272;2023-06-14T08:01:34;21.60;59.40
44767;DHT22;30487;48.716;9.272;2023-06-14T08:04:00;21.70;59.90
44767;DHT22;30487;48.716;9.272;2023-06-14T08:06:26;21.80;59.50
44767;DHT22;30487;48.716;9.272;2023-06-14T08:08:52;22.00;59.20
44767;DHT22;30487;48.716;9.272;2023-06-14T08:11:17;22.10;61.00
44767;DHT22;30487;48.716;9.272;2023-06-14T08:13:43;22.20;60.00
44767;DHT22;30487;48.716;9.272;2023-06-14T08:16:09;22.30;60.00
44767;DHT22;30487;48.716;9.272;2023-06-14T08:18:34;22.40;60.70
44767;DHT22;30487;48.716;9.272;2023-06-14T08:21:00;22.60;60.40
44767;DHT22;30487;48.716;9.272;2023-06-14T08:23:26;22.80;59.40
44767;DHT22;30487;48.716;9.272;2023-06-14T08:25:52;22.90;58.90
44767;DHT22;30487;48.716;9.272;2023-06-14T08:28:18;23.00;59.10
44767;DHT22;30487;48.716;9.272;2023-06-14T08:30:43;23.10;59.30
44767;DHT22;30487;48.716;9.272;2023-06-14T08:33:09;23.20;59.40
44767;DHT22;30487;48.716;9.272;2023-06-14T08:35:34;23.30;59.40
44767;DHT22;30487;48.716;9.272;2023-06-14T08:38:03;23.40;59.10
44767;DHT22;30487;48.716;9.272;2023-06-14T08:40:30;23.60;59.40
44767;DHT22;30487;48.716;9.272;2023-06-14T08:42:56;23.80;58.60
44767;DHT22;30487;48.716;9.272;2023-06-14T08:45:23;23.90;58.60
44767;DHT22;30487;48.716;9.272;2023-06-14T08:47:50;24.10;58.60
44767;DHT22;30487;48.716;9.272;2023-06-14T08:50:23;24.10;57.80
44767;DHT22;30487;48.716;9.272;2023-06-14T08:52:53;24.30;57.50
44767;DHT22;30487;48.716;9.272;2023-06-14T08:55:20;24.40;57.40
44767;DHT22;30487;48.716;9.272;2023-06-14T08:57:46;24.40;57.00
44767;DHT22;30487;48.716;9.272;2023-06-14T09:00:14;24.50;56.30
44767;DHT22;30487;48.716;9.272;2023-06-14T09:02:40;24.60;56.40
44767;DHT22;30487;48.716;9.272;2023-06-14T09:05:09;24.70;56.40
44767;DHT22;30487;48.716;9.272;2023-06-14T09:07:37;24.80;56.60
44767;DHT22;30487;48.716;9.272;2023-06-14T09:10:15;25.00;56.50
44767;DHT22;30487;48.716;9.272;2023-06-14T09:12:40;25.20;56.40
44767;DHT22;30487;48.716;9.272;2023-06-14T09:15:07;25.20;55.60
44767;DHT22;30487;48.716;9.272;2023-06-14T09:17:37;25.40;56.00
44767;DHT22;30487;48.716;9.272;2023-06-14T09:20:05;25.60;55.10
44767;DHT22;30487;48.716;9.272;2023-06-14T09:22:39;25.80;55.60
44767;DHT22;30487;48.716;9.272;2023-06-14T09:25:05;26.00;55.40
44767;DHT22;30487;48.716;9.272;2023-06-14T09:27:32;26.20;55.70
44767;DHT22;30487;48.716;9.272;2023-06-14T09:29:58;26.30;54.70
44767;DHT22;30487;48.716;9.272;2023-06-14T09:32:24;26.50;54.50
44767;DHT22;30487;48.716;9.272;2023-06-14T09:34:50;26.60;53.50
44767;DHT22;30487;48.716;9.272;2023-06-14T09:37:29;26.70;53.10
44767;DHT22;30487;48.716;9.272;2023-06-14T09:39:55;26.80;54.00
44767;DHT22;30487;48.716;9.272;2023-06-14T09:42:20;26.80;52.60
44767;DHT22;30487;48.716;9.272;2023-06-14T09:44:49;26.80;52.80
44767;DHT22;30487;48.716;9.272;2023-06-14T09:47:15;26.90;52.20
44767;DHT22;30487;48.716;9.272;2023-06-14T09:49:42;26.80;54.00
44767;DHT22;30487;48.716;9.272;2023-06-14T09:52:10;26.90;52.50
44767;DHT22;30487;48.716;9.272;2023-06-14T09:54:41;27.10;50.10
44767;DHT22;30487;48.716;9.272;2023-06-14T09:57:13;27.20;50.40
44767;DHT22;30487;48.716;9.272;2023-06-14T09:59:43;27.10;50.40
44767;DHT22;30487;48.716;9.272;2023-06-14T10:02:18;27.00;50.70
44767;DHT22;30487;48.716;9.272;2023-06-14T10:04:53;26.90;50.40
44767;DHT22;30487;48.716;9.272;2023-06-14T10:07:23;26.60;51.30
44767;DHT22;30487;48.716;9.272;2023-06-14T10:09:52;26.50;51.40
44767;DHT22;30487;48.716;9.272;2023-06-14T10:12:18;26.70;51.90
44767;DHT22;30487;48.716;9.272;2023-06-14T10:14:51;26.90;51.90
44767;DHT22;30487;48.716;9.272;2023-06-14T10:20:46;27.20;50.40
44767;DHT22;30487;48.716;9.272;2023-06-14T10:22:58;27.30;50.90
44767;DHT22;30487;48.716;9.272;2023-06-14T10:25:28;27.30;49.80
44767;DHT22;30487;48.716;9.272;2023-06-14T10:28:14;27.40;50.20
44767;DHT22;30487;48.716;9.272;2023-06-14T10:31:11;27.50;49.00
44767;DHT22;30487;48.716;9.272;2023-06-14T10:33:56;27.20;50.00
44767;DHT22;30487;48.716;9.272;2023-06-14T10:36:31;27.10;50.50
44767;DHT22;30487;48.716;9.272;2023-06-14T10:39:08;27.20;50.20
44767;DHT22;30487;48.716;9.272;2023-06-14T10:41:37;27.40;49.40
44767;DHT22;30487;48.716;9.272;2023-06-14T10:46:56;27.90;49.90
44767;DHT22;30487;48.716;9.272;2023-06-14T10:49:45;28.00;48.70
44767;DHT22;30487;48.716;9.272;2023-06-14T10:52:17;28.10;49.60
44767;DHT22;30487;48.716;9.272;2023-06-14T10:55:03;28.20;49.10
44767;DHT22;30487;48.716;9.272;2023-06-14T10:57:30;28.20;49.40
44767;DHT22;30487;48.716;9.272;2023-06-14T11:00:03;28.30;49.20
44767;DHT22;30487;48.716;9.272;2023-06-14T11:10:44;27.50;48.60
44767;DHT22;30487;48.716;9.272;2023-06-14T11:13:12;27.40;49.40
44767;DHT22;30487;48.716;9.272;2023-06-14T11:15:44;27.20;48.20
44767;DHT22;30487;48.716;9.272;2023-06-14T11:18:10;27.40;49.30
44767;DHT22;30487;48.716;9.272;2023-06-14T11:20:37;27.70;49.10
44767;DHT22;30487;48.716;9.272;2023-06-14T11:23:03;28.00;49.30
44767;DHT22;30487;48.716;9.272;2023-06-14T11:25:29;28.20;48.40
44767;DHT22;30487;48.716;9.272;2023-06-14T11:27:55;28.20;47.30
44767;DHT22;30487;48.716;9.272;2023-06-14T11:30:21;28.30;48.60
44767;DHT22;30487;48.716;9.272;2023-06-14T11:32:51;28.50;48.60
44767;DHT22;30487;48.716;9.272;2023-06-14T11:35:18;28.40;48.40
44767;DHT22;30487;48.716;9.272;2023-06-14T11:37:44;28.70;48.40
44767;DHT22;30487;48.716;9.272;2023-06-14T11:40:11;28.80;47.50
44767;DHT22;30487;48.716;9.272;2023-06-14T11:42:37;28.70;47.70
44767;DHT22;30487;48.716;9.272;2023-06-14T11:45:06;28.80;47.90
44767;DHT22;30487;48.716;9.272;2023-06-14T11:47:33;28.80;47.70
44767;DHT22;30487;48.716;9.272;2023-06-14T11:50:03;28.80;47.30
44767;DHT22;30487;48.716;9.272;2023-06-14T11:52:29;29.00;47.10
44767;DHT22;30487;48.716;9.272;2023-06-14T11:54:55;29.00;46.90
44767;DHT22;30487;48.716;9.272;2023-06-14T11:57:21;29.10;45.90
44767;DHT22;30487;48.716;9.272;2023-06-14T11:59:47;29.10;47.00
44767;DHT22;30487;48.716;9.272;2023-06-14T12:02:16;29.20;47.70
44767;DHT22;30487;48.716;9.272;2023-06-14T12:04:43;29.30;47.00
44767;DHT22;30487;48.716;9.272;2023-06-14T12:07:10;28.90;46.80
44767;DHT22;30487;48.716;9.272;2023-06-14T12:09:41;28.70;47.40
44767;DHT22;30487;48.716;9.272;2023-06-14T12:12:12;28.40;47.40
44767;DHT22;30487;48.716;9.272;2023-06-14T12:14:37;28.20;47.40
44767;DHT22;30487;48.716;9.272;2023-06-14T12:17:07;27.90;47.70
44767;DHT22;30487;48.716;9.272;2023-06-14T12:19:33;28.20;47.30
44767;DHT22;30487;48.716;9.272;2023-06-14T12:22:04;28.50;48.30
44767;DHT22;30487;48.716;9.272;2023-06-14T12:24:30;28.90;47.70
44767;DHT22;30487;48.716;9.272;2023-06-14T12:27:00;29.40;48.40
44767;DHT22;30487;48.716;9.272;2023-06-14T12:29:28;29.60;46.70
44767;DHT22;30487;48.716;9.272;2023-06-14T12:31:54;29.90;47.20
44767;DHT22;30487;48.716;9.272;2023-06-14T12:34:24;30.10;46.30
44767;DHT22;30487;48.716;9.272;2023-06-14T12:36:50;30.50;46.50
44767;DHT22;30487;48.716;9.272;2023-06-14T12:39:16;30.50;45.50
44767;DHT22;30487;48.716;9.272;2023-06-14T12:41:42;30.30;46.40
44767;DHT22;30487;48.716;9.272;2023-06-14T12:44:08;30.30;45.90
44767;DHT22;30487;48.716;9.272;2023-06-14T12:46:33;30.10;45.80
44767;DHT22;30487;48.716;9.272;2023-06-14T12:49:00;30.30;46.40
44767;DHT22;30487;48.716;9.272;2023-06-14T12:51:26;30.50;45.80
44767;DHT22;30487;48.716;9.272;2023-06-14T12:53:51;30.60;46.60
44767;DHT22;30487;48.716;9.272;2023-06-14T12:56:18;31.00;46.40
44767;DHT22;30487;48.716;9.272;2023-06-14T12:58:43;31.40;47.10
44767;DHT22;30487;48.716;9.272;2023-06-14T13:01:09;31.30;45.30
44767;DHT22;30487;48.716;9.272;2023-06-14T13:03:35;31.10;44.80
44767;DHT22;30487;48.716;9.272;2023-06-14T13:06:01;31.10;45.20
44767;DHT22;30487;48.716;9.272;2023-06-14T13:08:27;30.70;45.00
44767;DHT22;30487;48.716;9.272;2023-06-14T13:10:53;30.70;45.50
44767;DHT22;30487;48.716;9.272;2023-06-14T13:13:18;31.10;45.40
44767;DHT22;30487;48.716;9.272;2023-06-14T13:15:44;31.30;45.20
44767;DHT22;30487;48.716;9.272;2023-06-14T13:18:11;30.90;45.10
44767;DHT22;30487;48.716;9.272;2023-06-14T13:20:38;30.40;45.90
44767;DHT22;30487;48.716;9.272;2023-06-14T13:23:04;30.20;47.30
44767;DHT22;30487;48.716;9.272;2023-06-14T13:25:33;29.90;45.60
44767;DHT22;30487;48.716;9.272;2023-06-14T13:27:59;29.60;45.80
44767;DHT22;30487;48.716;9.272;2023-06-14T13:30:24;29.80;46.90
44767;DHT22;30487;48.716;9.272;2023-06-14T13:32:50;30.00;46.70
44767;DHT22;30487;48.716;9.272;2023-06-14T13:35:17;30.00;46.20
44767;DHT22;30487;48.716;9.272;2023-06-14T13:37:43;30.00;46.60
44767;DHT22;30487;48.716;9.272;2023-06-14T13:40:09;29.80;46.20
44767;DHT22;30487;48.716;9.272;2023-06-14T13:42:35;29.60;46.60
44767;DHT22;30487;48.716;9.272;2023-06-14T13:45:02;29.30;46.40
44767;DHT22;30487;48.716;9.272;2023-06-14T13:47:28;29.00;46.70
44767;DHT22;30487;48.716;9.272;2023-06-14T13:49:54;28.90;47.20
44767;DHT22;30487;48.716;9.272;2023-06-14T13:52:19;28.90;47.10
44767;DHT22;30487;48.716;9.272;2023-06-14T13:54:46;28.70;47.50
44767;DHT22;30487;48.716;9.272;2023-06-14T13:57:11;28.70;47.00
44767;DHT22;30487;48.716;9.272;2023-06-14T13:59:38;28.60;47.20
44767;DHT22;30487;48.716;9.272;2023-06-14T14:02:04;28.70;47.10
44767;DHT22;30487;48.716;9.272;2023-06-14T14:04:31;28.80;47.20
44767;DHT22;30487;48.716;9.272;2023-06-14T14:06:56;28.90;48.10
44767;DHT22;30487;48.716;9.272;2023-06-14T14:09:22;28.90;47.50
44767;DHT22;30487;48.716;9.272;2023-06-14T14:11:48;28.90;46.50
44767;DHT22;30487;48.716;9.272;2023-06-14T14:14:14;28.80;47.40
44767;DHT22;30487;48.716;9.272;2023-06-14T14:16:39;28.70;46.80
44767;DHT22;30487;48.716;9.272;2023-06-14T14:19:05;28.50;47.00
44767;DHT22;30487;48.716;9.272;2023-06-14T14:21:32;28.30;46.70
44767;DHT22;30487;48.716;9.272;2023-06-14T14:23:58;28.10;47.10
44767;DHT22;30487;48.716;9.272;2023-06-14T14:26:24;28.00;47.50
44767;DHT22;30487;48.716;9.272;2023-06-14T14:28:50;28.00;47.50
44767;DHT22;30487;48.716;9.272;2023-06-14T14:31:16;27.80;47.80
44767;DHT22;30487;48.716;9.272;2023-06-14T14:33:42;27.60;48.20
44767;DHT22;30487;48.716;9.272;2023-06-14T14:36:07;27.40;48.10
44767;DHT22;30487;48.716;9.272;2023-06-14T14:38:33;27.30;48.30
44767;DHT22;30487;48.716;9.272;2023-06-14T14:40:59;27.40;48.60
44767;DHT22;30487;48.716;9.272;2023-06-14T14:43:24;27.50;49.20
44767;DHT22;30487;48.716;9.272;2023-06-14T14:45:50;27.70;49.00
44767;DHT22;30487;48.716;9.272;2023-06-14T14:48:16;27.80;49.10
44767;DHT22;30487;48.716;9.272;2023-06-14T14:50:41;27.80;48.70
44767;DHT22;30487;48.716;9.272;2023-06-14T14:53:07;27.90;48.30
44767;DHT22;30487;48.716;9.272;2023-06-14T14:55:33;27.80;47.80
44767;DHT22;30487;48.716;9.272;2023-06-14T14:58:01;27.80;47.90
44767;DHT22;30487;48.716;9.272;2023-06-14T15:00:27;27.80;48.10
44767;DHT22;30487;48.716;9.272;2023-06-14T15:02:53;27.80;48.90
44767;DHT22;30487;48.716;9.272;2023-06-14T15:05:18;27.90;48.50
44767;DHT22;30487;48.716;9.272;2023-06-14T15:07:44;27.90;48.20
44767;DHT22;30487;48.716;9.272;2023-06-14T15:10:11;27.80;49.10
44767;DHT22;30487;48.716;9.272;2023-06-14T15:12:36;28.00;49.00
44767;DHT22;30487;48.716;9.272;2023-06-14T15:15:02;28.10;48.60
44767;DHT22;30487;48.716;9.272;2023-06-14T15:17:29;28.00;48.20
44767;DHT22;30487;48.716;9.272;2023-06-14T15:19:54;28.00;48.50
44767;DHT22;30487;48.716;9.272;2023-06-14T15:22:20;27.90;49.50
44767;DHT22;30487;48.716;9.272;2023-06-14T15:24:46;28.10;49.10
44767;DHT22;30487;48.716;9.272;2023-06-14T15:27:12;28.20;50.10
44767;DHT22;30487;48.716;9.272;2023-06-14T15:29:41;28.40;49.70
44767;DHT22;30487;48.716;9.272;2023-06-14T15:32:07;28.50;49.20
44767;DHT22;30487;48.716;9.272;2023-06-14T15:34:33;28.50;48.60
44767;DHT22;30487;48.716;9.272;2023-06-14T15:36:59;28.30;48.20
44767;DHT22;30487;48.716;9.272;2023-06-14T15:39:25;28.10;48.20
44767;DHT22;30487;48.716;9.272;2023-06-14T15:41:52;27.90;48.00
44767;DHT22;30487;48.716;9.272;2023-06-14T15:44:18;27.60;48.70
44767;DHT22;30487;48.716;9.272;2023-06-14T15:46:43;27.60;48.50